sensor_id;sensor_type;location;lat;lon;timestamp;P1;durP1;ratioP1;P2;durP2;ratioP2
67889;SDS011;54685;52.082;5.426;2024-02-28T00:02:10;48.00;;;26.02;;
67889;SDS011;54685;52.082;5.426;2024-02-28T00:04:37;51.25;;;26.05;;
67889;SDS011;54685;52.082;5.426;2024-02-28T00:07:06;42.92;;;24.70;;
67889;SDS011;54685;52.082;5.426;2024-02-28T00:09:33;46.30;;;25.70;;
67889;SDS011;54685;52.082;5.426;2024-02-28T00:12:00;48.03;;;25.20;;
67889;SDS011;54685;52.082;5.426;2024-02-28T00:14:26;47.45;;;25.92;;
67889;SDS011;54685;52.082;5.426;2024-02-28T00:16:53;47.25;;;24.63;;
67889;SDS011;54685;52.082;5.426;2024-02-28T00:19:20;43.80;;;24.02;;
67889;SDS011;54685;52.082;5.426;2024-02-28T00:21:48;46.67;;;25.17;;
67889;SDS011;54685;52.082;5.426;2024-02-28T00:24:15;49.05;;;24.77;;
67889;SDS011;54685;52.082;5.426;2024-02-28T00:26:42;45.47;;;23.83;;
67889;SDS011;54685;52.082;5.426;2024-02-28T00:29:09;43.30;;;24.13;;
67889;SDS011;54685;52.082;5.426;2024-02-28T00:31:36;43.17;;;23.65;;
67889;SDS011;54685;52.082;5.426;2024-02-28T00:34:03;47.42;;;24.50;;
67889;SDS011;54685;52.082;5.426;2024-02-28T00:36:30;47.65;;;25.10;;
67889;SDS011;54685;52.082;5.426;2024-02-28T00:39:13;42.92;;;23.60;;
67889;SDS011;54685;52.082;5.426;2024-02-28T00:41:41;44.47;;;23.58;;
67889;SDS011;54685;52.082;5.426;2024-02-28T00:44:07;43.83;;;23.75;;
67889;SDS011;54685;52.082;5.426;2024-02-28T00:46:35;46.53;;;25.17;;
67889;SDS011;54685;52.082;5.426;2024-02-28T00:49:02;48.33;;;24.92;;
67889;SDS011;54685;52.082;5.426;2024-02-28T00:51:28;43.83;;;23.00;;
67889;SDS011;54685;52.082;5.426;2024-02-28T00:53:55;45.47;;;24.23;;
67889;SDS011;54685;52.082;5.426;2024-02-28T00:56:22;47.03;;;24.83;;
67889;SDS011;54685;52.082;5.426;2024-02-28T00:58:50;48.38;;;25.10;;
67889;SDS011;54685;52.082;5.426;2024-02-28T01:01:17;42.22;;;23.50;;
67889;SDS011;54685;52.082;5.426;2024-02-28T01:03:44;46.38;;;24.38;;
67889;SDS011;54685;52.082;5.426;2024-02-28T01:06:11;47.25;;;26.08;;
67889;SDS011;54685;52.082;5.426;2024-02-28T01:08:38;51.28;;;26.88;;
67889;SDS011;54685;52.082;5.426;2024-02-28T01:11:04;49.60;;;25.88;;
67889;SDS011;54685;52.082;5.426;2024-02-28T01:13:31;49.92;;;25.60;;
67889;SDS011;54685;52.082;5.426;2024-02-28T01:15:58;54.67;;;25.88;;
67889;SDS011;54685;52.082;5.426;2024-02-28T01:18:26;55.33;;;26.55;;
67889;SDS011;54685;52.082;5.426;2024-02-28T01:20:56;62.20;;;25.13;;
67889;SDS011;54685;52.082;5.426;2024-02-28T01:23:23;90.82;;;25.27;;
67889;SDS011;54685;52.082;5.426;2024-02-28T01:25:50;58.45;;;25.58;;
67889;SDS011;54685;52.082;5.426;2024-02-28T01:28:17;99.32;;;26.83;;
67889;SDS011;54685;52.082;5.426;2024-02-28T01:30:43;127.38;;;26.20;;
67889;SDS011;54685;52.082;5.426;2024-02-28T01:33:10;189.27;;;27.65;;
67889;SDS011;54685;52.082;5.426;2024-02-28T01:35:39;96.13;;;23.77;;
67889;SDS011;54685;52.082;5.426;2024-02-28T01:38:06;108.45;;;23.85;;
67889;SDS011;54685;52.082;5.426;2024-02-28T01:40:33;149.40;;;24.52;;
67889;SDS011;54685;52.082;5.426;2024-02-28T01:43:03;213.98;;;25.08;;
67889;SDS011;54685;52.082;5.426;2024-02-28T01:45:33;112.90;;;22.52;;
67889;SDS011;54685;52.082;5.426;2024-02-28T01:48:00;104.07;;;23.02;;
67889;SDS011;54685;52.082;5.426;2024-02-28T01:50:27;103.28;;;21.15;;
67889;SDS011;54685;52.082;5.426;2024-02-28T01:52:54;120.75;;;22.88;;
67889;SDS011;54685;52.082;5.426;2024-02-28T01:55:21;165.20;;;23.00;;
67889;SDS011;54685;52.082;5.426;2024-02-28T01:57:50;177.60;;;22.58;;
67889;SDS011;54685;52.082;5.426;2024-02-28T02:00:18;171.38;;;23.27;;
67889;SDS011;54685;52.082;5.426;2024-02-28T02:02:45;104.60;;;20.02;;
67889;SDS011;54685;52.082;5.426;2024-02-28T02:05:12;108.53;;;20.50;;
67889;SDS011;54685;52.082;5.426;2024-02-28T02:07:42;140.10;;;22.98;;
67889;SDS011;54685;52.082;5.426;2024-02-28T02:10:09;131.48;;;22.65;;
67889;SDS011;54685;52.082;5.426;2024-02-28T02:12:38;141.55;;;21.75;;
67889;SDS011;54685;52.082;5.426;2024-02-28T02:15:05;56.38;;;20.13;;
67889;SDS011;54685;52.082;5.426;2024-02-28T02:17:32;111.63;;;21.67;;
67889;SDS011;54685;52.082;5.426;2024-02-28T02:19:59;137.93;;;21.63;;
67889;SDS011;54685;52.082;5.426;2024-02-28T02:22:27;119.70;;;22.63;;
67889;SDS011;54685;52.082;5.426;2024-02-28T02:25:05;126.07;;;20.95;;
67889;SDS011;54685;52.082;5.426;2024-02-28T02:27:32;88.75;;;21.40;;
67889;SDS011;54685;52.082;5.426;2024-02-28T02:29:59;98.43;;;21.70;;
67889;SDS011;54685;52.082;5.426;2024-02-28T02:32:26;62.05;;;21.50;;
67889;SDS011;54685;52.082;5.426;2024-02-28T02:34:53;58.22;;;19.70;;
67889;SDS011;54685;52.082;5.426;2024-02-28T02:37:19;82.57;;;21.52;;
67889;SDS011;54685;52.082;5.426;2024-02-28T02:39:46;79.47;;;22.70;;
67889;SDS011;54685;52.082;5.426;2024-02-28T02:42:13;72.30;;;21.67;;
67889;SDS011;54685;52.082;5.426;2024-02-28T02:44:41;57.95;;;20.10;;
67889;SDS011;54685;52.082;5.426;2024-02-28T02:47:08;67.88;;;20.95;;
67889;SDS011;54685;52.082;5.426;2024-02-28T02:49:35;49.45;;;20.38;;
67889;SDS011;54685;52.082;5.426;2024-02-28T02:52:02;62.55;;;21.17;;
67889;SDS011;54685;52.082;5.426;2024-02-28T02:54:29;51.03;;;20.48;;
67889;SDS011;54685;52.082;5.426;2024-02-28T02:56:55;49.85;;;18.63;;
67889;SDS011;54685;52.082;5.426;2024-02-28T02:59:22;62.10;;;21.20;;
67889;SDS011;54685;52.082;5.426;2024-02-28T03:01:49;67.35;;;20.42;;
67889;SDS011;54685;52.082;5.426;2024-02-28T03:04:16;64.10;;;21.73;;
67889;SDS011;54685;52.082;5.426;2024-02-28T03:06:43;72.03;;;19.95;;
67889;SDS011;54685;52.082;5.426;2024-02-28T03:09:10;49.20;;;19.20;;
67889;SDS011;54685;52.082;5.426;2024-02-28T03:11:36;86.78;;;20.55;;
67889;SDS011;54685;52.082;5.426;2024-02-28T03:14:04;107.78;;;20.52;;
67889;SDS011;54685;52.082;5.426;2024-02-28T03:16:31;44.45;;;19.70;;
67889;SDS011;54685;52.082;5.426;2024-02-28T03:18:58;82.00;;;21.27;;
67889;SDS011;54685;52.082;5.426;2024-02-28T03:21:24;101.68;;;20.45;;
67889;SDS011;54685;52.082;5.426;2024-02-28T03:23:51;46.80;;;19.08;;
67889;SDS011;54685;52.082;5.426;2024-02-28T03:26:20;94.18;;;21.60;;
67889;SDS011;54685;52.082;5.426;2024-02-28T03:28:47;94.43;;;19.60;;
67889;SDS011;54685;52.082;5.426;2024-02-28T03:31:13;100.95;;;20.30;;
67889;SDS011;54685;52.082;5.426;2024-02-28T03:33:40;74.28;;;20.75;;
67889;SDS011;54685;52.082;5.426;2024-02-28T03:36:07;87.07;;;19.77;;
67889;SDS011;54685;52.082;5.426;2024-02-28T03:38:34;47.72;;;19.85;;
67889;SDS011;54685;52.082;5.426;2024-02-28T03:41:01;41.08;;;19.92;;
67889;SDS011;54685;52.082;5.426;2024-02-28T03:43:28;44.70;;;21.55;;
67889;SDS011;54685;52.082;5.426;2024-02-28T03:45:55;41.17;;;21.35;;
67889;SDS011;54685;52.082;5.426;2024-02-28T03:48:22;33.45;;;20.45;;
67889;SDS011;54685;52.082;5.426;2024-02-28T03:50:49;37.15;;;22.20;;
67889;SDS011;54685;52.082;5.426;2024-02-28T03:53:19;33.92;;;20.75;;
67889;SDS011;54685;52.082;5.426;2024-02-28T03:55:46;32.45;;;20.52;;
67889;SDS011;54685;52.082;5.426;2024-02-28T03:58:13;30.58;;;20.63;;
67889;SDS011;54685;52.082;5.426;2024-02-28T04:00:39;29.25;;;18.75;;
67889;SDS011;54685;52.082;5.426;2024-02-28T04:03:09;32.00;;;20.13;;
67889;SDS011;54685;52.082;5.426;2024-02-28T04:05:36;29.77;;;19.38;;
67889;SDS011;54685;52.082;5.426;2024-02-28T04:08:03;31.50;;;19.55;;
67889;SDS011;54685;52.082;5.426;2024-02-28T04:10:30;29.35;;;19.17;;
67889;SDS011;54685;52.082;5.426;2024-02-28T04:12:56;27.52;;;18.60;;
67889;SDS011;54685;52.082;5.426;2024-02-28T04:15:23;25.08;;;17.52;;
67889;SDS011;54685;52.082;5.426;2024-02-28T04:17:52;26.38;;;16.95;;
67889;SDS011;54685;52.082;5.426;2024-02-28T04:20:19;23.55;;;16.58;;
67889;SDS011;54685;52.082;5.426;2024-02-28T04:22:46;24.83;;;16.73;;
67889;SDS011;54685;52.082;5.426;2024-02-28T04:25:12;26.73;;;16.52;;
67889;SDS011;54685;52.082;5.426;2024-02-28T04:27:39;24.83;;;16.63;;
67889;SDS011;54685;52.082;5.426;2024-02-28T04:30:06;27.05;;;17.98;;
67889;SDS011;54685;52.082;5.426;2024-02-28T04:32:33;25.75;;;16.67;;
67889;SDS011;54685;52.082;5.426;2024-02-28T04:35:01;22.80;;;16.30;;
67889;SDS011;54685;52.082;5.426;2024-02-28T04:37:29;28.00;;;17.40;;
67889;SDS011;54685;52.082;5.426;2024-02-28T04:39:56;26.55;;;17.92;;
67889;SDS011;54685;52.082;5.426;2024-02-28T04:42:23;22.02;;;16.10;;
67889;SDS011;54685;52.082;5.426;2024-02-28T04:44:49;24.10;;;16.05;;
67889;SDS011;54685;52.082;5.426;2024-02-28T04:47:16;24.02;;;17.25;;
67889;SDS011;54685;52.082;5.426;2024-02-28T04:49:47;24.25;;;16.50;;
67889;SDS011;54685;52.082;5.426;2024-02-28T04:52:13;26.35;;;16.35;;
67889;SDS011;54685;52.082;5.426;2024-02-28T04:54:43;24.65;;;16.05;;
67889;SDS011;54685;52.082;5.426;2024-02-28T04:57:10;28.00;;;15.88;;
67889;SDS011;54685;52.082;5.426;2024-02-28T04:59:36;20.00;;;15.77;;
67889;SDS011;54685;52.082;5.426;2024-02-28T05:02:03;22.75;;;15.00;;
67889;SDS011;54685;52.082;5.426;2024-02-28T05:04:30;21.17;;;15.45;;
67889;SDS011;54685;52.082;5.426;2024-02-28T05:06:57;23.40;;;16.08;;
67889;SDS011;54685;52.082;5.426;2024-02-28T05:09:23;23.80;;;16.45;;
67889;SDS011;54685;52.082;5.426;2024-02-28T05:11:50;23.58;;;17.98;;
67889;SDS011;54685;52.082;5.426;2024-02-28T05:14:17;23.25;;;17.98;;
67889;SDS011;54685;52.082;5.426;2024-02-28T05:16:44;24.90;;;17.13;;
67889;SDS011;54685;52.082;5.426;2024-02-28T05:19:13;24.08;;;16.02;;
67889;SDS011;54685;52.082;5.426;2024-02-28T05:21:40;21.50;;;16.67;;
67889;SDS011;54685;52.082;5.426;2024-02-28T05:24:08;24.83;;;16.10;;
67889;SDS011;54685;52.082;5.426;2024-02-28T05:26:35;23.75;;;15.82;;
67889;SDS011;54685;52.082;5.426;2024-02-28T05:29:02;24.63;;;16.75;;
67889;SDS011;54685;52.082;5.426;2024-02-28T05:31:30;24.05;;;16.70;;
67889;SDS011;54685;52.082;5.426;2024-02-28T05:33:58;21.58;;;16.52;;
67889;SDS011;54685;52.082;5.426;2024-02-28T05:36:27;22.13;;;16.27;;
67889;SDS011;54685;52.082;5.426;2024-02-28T05:38:56;21.52;;;15.93;;
67889;SDS011;54685;52.082;5.426;2024-02-28T05:41:23;24.52;;;15.63;;
67889;SDS011;54685;52.082;5.426;2024-02-28T05:43:51;21.75;;;16.27;;
67889;SDS011;54685;52.082;5.426;2024-02-28T05:46:18;19.88;;;16.15;;
67889;SDS011;54685;52.082;5.426;2024-02-28T05:48:45;25.13;;;17.35;;
67889;SDS011;54685;52.082;5.426;2024-02-28T05:51:12;22.40;;;16.35;;
67889;SDS011;54685;52.082;5.426;2024-02-28T05:53:40;25.70;;;17.67;;
67889;SDS011;54685;52.082;5.426;2024-02-28T05:56:07;23.10;;;16.92;;
67889;SDS011;54685;52.082;5.426;2024-02-28T05:58:42;18.80;;;15.68;;
67889;SDS011;54685;52.082;5.426;2024-02-28T06:01:10;25.67;;;16.45;;
67889;SDS011;54685;52.082;5.426;2024-02-28T06:03:38;22.80;;;16.25;;
67889;SDS011;54685;52.082;5.426;2024-02-28T06:06:04;22.92;;;15.65;;
67889;SDS011;54685;52.082;5.426;2024-02-28T06:08:35;22.00;;;16.15;;
67889;SDS011;54685;52.082;5.426;2024-02-28T06:11:04;22.98;;;15.45;;
67889;SDS011;54685;52.082;5.426;2024-02-28T06:13:31;24.55;;;16.88;;
67889;SDS011;54685;52.082;5.426;2024-02-28T06:15:59;21.67;;;15.02;;
67889;SDS011;54685;52.082;5.426;2024-02-28T06:18:26;20.20;;;16.00;;
67889;SDS011;54685;52.082;5.426;2024-02-28T06:20:56;19.90;;;16.05;;
67889;SDS011;54685;52.082;5.426;2024-02-28T06:23:23;23.55;;;16.38;;
67889;SDS011;54685;52.082;5.426;2024-02-28T06:25:55;26.87;;;15.40;;
67889;SDS011;54685;52.082;5.426;2024-02-28T06:28:22;20.77;;;16.13;;
67889;SDS011;54685;52.082;5.426;2024-02-28T06:30:49;20.88;;;14.88;;
67889;SDS011;54685;52.082;5.426;2024-02-28T06:33:16;22.08;;;15.65;;
67889;SDS011;54685;52.082;5.426;2024-02-28T06:35:43;21.83;;;16.35;;
67889;SDS011;54685;52.082;5.426;2024-02-28T06:38:10;18.48;;;15.88;;
67889;SDS011;54685;52.082;5.426;2024-02-28T06:40:37;23.05;;;16.77;;
67889;SDS011;54685;52.082;5.426;2024-02-28T06:43:04;23.80;;;17.50;;
67889;SDS011;54685;52.082;5.426;2024-02-28T06:45:34;21.85;;;16.40;;
67889;SDS011;54685;52.082;5.426;2024-02-28T06:48:03;24.17;;;16.40;;
67889;SDS011;54685;52.082;5.426;2024-02-28T06:50:30;20.65;;;16.42;;
67889;SDS011;54685;52.082;5.426;2024-02-28T06:52:57;21.75;;;16.38;;
67889;SDS011;54685;52.082;5.426;2024-02-28T06:55:24;23.52;;;16.73;;
67889;SDS011;54685;52.082;5.426;2024-02-28T06:57:51;23.30;;;16.50;;
67889;SDS011;54685;52.082;5.426;2024-02-28T07:00:18;21.98;;;15.82;;
67889;SDS011;54685;52.082;5.426;2024-02-28T07:02:46;22.23;;;17.30;;
67889;SDS011;54685;52.082;5.426;2024-02-28T07:05:13;21.38;;;16.02;;
67889;SDS011;54685;52.082;5.426;2024-02-28T07:07:39;22.77;;;16.45;;
67889;SDS011;54685;52.082;5.426;2024-02-28T07:10:06;23.85;;;17.45;;
67889;SDS011;54685;52.082;5.426;2024-02-28T07:12:33;25.17;;;17.20;;
67889;SDS011;54685;52.082;5.426;2024-02-28T07:15:00;31.58;;;17.67;;
67889;SDS011;54685;52.082;5.426;2024-02-28T07:17:27;24.58;;;17.40;;
67889;SDS011;54685;52.082;5.426;2024-02-28T07:19:54;25.52;;;17.55;;
67889;SDS011;54685;52.082;5.426;2024-02-28T07:22:21;19.80;;;15.60;;
67889;SDS011;54685;52.082;5.426;2024-02-28T07:24:47;22.27;;;15.82;;
67889;SDS011;54685;52.082;5.426;2024-02-28T07:27:15;21.38;;;16.40;;
67889;SDS011;54685;52.082;5.426;2024-02-28T07:29:42;20.95;;;16.42;;
67889;SDS011;54685;52.082;5.426;2024-02-28T07:32:10;22.48;;;16.52;;
67889;SDS011;54685;52.082;5.426;2024-02-28T07:34:36;23.73;;;17.77;;
67889;SDS011;54685;52.082;5.426;2024-02-28T07:37:03;23.80;;;17.25;;
67889;SDS011;54685;52.082;5.426;2024-02-28T07:39:30;19.95;;;16.30;;
67889;SDS011;54685;52.082;5.426;2024-02-28T07:41:57;26.95;;;16.58;;
67889;SDS011;54685;52.082;5.426;2024-02-28T07:44:25;19.83;;;15.48;;
67889;SDS011;54685;52.082;5.426;2024-02-28T07:46:52;24.38;;;15.52;;
67889;SDS011;54685;52.082;5.426;2024-02-28T07:49:19;20.65;;;15.88;;
67889;SDS011;54685;52.082;5.426;2024-02-28T07:51:46;27.48;;;17.00;;
67889;SDS011;54685;52.082;5.426;2024-02-28T07:54:15;25.02;;;17.52;;
67889;SDS011;54685;52.082;5.426;2024-02-28T07:56:43;25.90;;;17.40;;
67889;SDS011;54685;52.082;5.426;2024-02-28T07:59:10;24.58;;;17.15;;
67889;SDS011;54685;52.082;5.426;2024-02-28T08:01:37;26.60;;;17.38;;
67889;SDS011;54685;52.082;5.426;2024-02-28T08:04:06;22.67;;;16.85;;
67889;SDS011;54685;52.082;5.426;2024-02-28T08:06:33;22.05;;;17.27;;
67889;SDS011;54685;52.082;5.426;2024-02-28T08:09:00;23.55;;;18.38;;
67889;SDS011;54685;52.082;5.426;2024-02-28T08:11:27;21.45;;;17.33;;
67889;SDS011;54685;52.082;5.426;2024-02-28T08:13:54;24.52;;;17.60;;
67889;SDS011;54685;52.082;5.426;2024-02-28T08:16:21;26.63;;;17.88;;
67889;SDS011;54685;52.082;5.426;2024-02-28T08:18:47;28.70;;;18.30;;
67889;SDS011;54685;52.082;5.426;2024-02-28T08:21:14;25.48;;;18.50;;
67889;SDS011;54685;52.082;5.426;2024-02-28T08:23:41;21.30;;;18.05;;
67889;SDS011;54685;52.082;5.426;2024-02-28T08:26:08;24.98;;;18.33;;
67889;SDS011;54685;52.082;5.426;2024-02-28T08:28:37;25.63;;;18.67;;
67889;SDS011;54685;52.082;5.426;2024-02-28T08:31:03;28.00;;;19.55;;
67889;SDS011;54685;52.082;5.426;2024-02-28T08:33:30;23.42;;;19.13;;
67889;SDS011;54685;52.082;5.426;2024-02-28T08:35:57;30.00;;;19.85;;
67889;SDS011;54685;52.082;5.426;2024-02-28T08:38:24;27.20;;;19.27;;
67889;SDS011;54685;52.082;5.426;2024-02-28T08:40:51;28.17;;;19.58;;
67889;SDS011;54685;52.082;5.426;2024-02-28T08:43:17;24.73;;;19.83;;
67889;SDS011;54685;52.082;5.426;2024-02-28T08:45:44;27.92;;;20.20;;
67889;SDS011;54685;52.082;5.426;2024-02-28T08:48:13;29.70;;;20.83;;
67889;SDS011;54685;52.082;5.426;2024-02-28T08:50:40;32.80;;;21.83;;
67889;SDS011;54685;52.082;5.426;2024-02-28T08:53:07;36.97;;;20.92;;
67889;SDS011;54685;52.082;5.426;2024-02-28T08:55:34;26.42;;;21.05;;
67889;SDS011;54685;52.082;5.426;2024-02-28T08:58:01;29.58;;;21.40;;
67889;SDS011;54685;52.082;5.426;2024-02-28T09:00:28;27.55;;;22.02;;
67889;SDS011;54685;52.082;5.426;2024-02-28T09:02:55;30.10;;;22.10;;
67889;SDS011;54685;52.082;5.426;2024-02-28T09:05:23;28.48;;;22.35;;
67889;SDS011;54685;52.082;5.426;2024-02-28T09:07:49;30.30;;;22.90;;
67889;SDS011;54685;52.082;5.426;2024-02-28T09:10:20;39.05;;;22.77;;
67889;SDS011;54685;52.082;5.426;2024-02-28T09:12:51;34.55;;;23.75;;
67889;SDS011;54685;52.082;5.426;2024-02-28T09:15:18;31.90;;;22.63;;
67889;SDS011;54685;52.082;5.426;2024-02-28T09:17:45;34.25;;;24.00;;
67889;SDS011;54685;52.082;5.426;2024-02-28T09:20:12;33.38;;;23.73;;
67889;SDS011;54685;52.082;5.426;2024-02-28T09:22:40;34.85;;;24.17;;
67889;SDS011;54685;52.082;5.426;2024-02-28T09:25:06;36.33;;;23.30;;
67889;SDS011;54685;52.082;5.426;2024-02-28T09:27:35;30.73;;;23.15;;
67889;SDS011;54685;52.082;5.426;2024-02-28T09:30:03;34.17;;;23.05;;
67889;SDS011;54685;52.082;5.426;2024-02-28T09:32:30;32.38;;;21.92;;
67889;SDS011;54685;52.082;5.426;2024-02-28T09:34:57;33.35;;;21.55;;
67889;SDS011;54685;52.082;5.426;2024-02-28T09:37:24;33.33;;;20.15;;
67889;SDS011;54685;52.082;5.426;2024-02-28T09:39:51;31.10;;;21.70;;
67889;SDS011;54685;52.082;5.426;2024-02-28T09:42:18;27.33;;;21.13;;
67889;SDS011;54685;52.082;5.426;2024-02-28T09:44:46;34.60;;;21.27;;
67889;SDS011;54685;52.082;5.426;2024-02-28T09:47:14;25.45;;;20.15;;
67889;SDS011;54685;52.082;5.426;2024-02-28T09:49:41;26.83;;;20.20;;
67889;SDS011;54685;52.082;5.426;2024-02-28T09:52:09;27.55;;;19.88;;
67889;SDS011;54685;52.082;5.426;2024-02-28T09:54:36;34.97;;;21.85;;
67889;SDS011;54685;52.082;5.426;2024-02-28T09:57:03;33.47;;;22.13;;
67889;SDS011;54685;52.082;5.426;2024-02-28T09:59:31;31.92;;;22.38;;
67889;SDS011;54685;52.082;5.426;2024-02-28T10:02:17;33.40;;;21.80;;
67889;SDS011;54685;52.082;5.426;2024-02-28T10:04:46;29.50;;;21.25;;
67889;SDS011;54685;52.082;5.426;2024-02-28T10:07:13;27.77;;;21.30;;
67889;SDS011;54685;52.082;5.426;2024-02-28T10:09:40;30.85;;;22.35;;
67889;SDS011;54685;52.082;5.426;2024-02-28T10:12:08;29.95;;;21.48;;
67889;SDS011;54685;52.082;5.426;2024-02-28T10:14:36;28.52;;;20.45;;
67889;SDS011;54685;52.082;5.426;2024-02-28T10:17:03;26.52;;;20.88;;
67889;SDS011;54685;52.082;5.426;2024-02-28T10:19:30;26.88;;;20.23;;
67889;SDS011;54685;52.082;5.426;2024-02-28T10:21:57;29.23;;;21.63;;
67889;SDS011;54685;52.082;5.426;2024-02-28T10:24:27;26.13;;;18.77;;
67889;SDS011;54685;52.082;5.426;2024-02-28T10:26:54;24.55;;;20.08;;
67889;SDS011;54685;52.082;5.426;2024-02-28T10:29:22;29.08;;;20.27;;
67889;SDS011;54685;52.082;5.426;2024-02-28T10:31:57;26.55;;;20.10;;
67889;SDS011;54685;52.082;5.426;2024-02-28T10:34:24;27.98;;;20.92;;
67889;SDS011;54685;52.082;5.426;2024-02-28T10:36:51;32.00;;;21.17;;
67889;SDS011;54685;52.082;5.426;2024-02-28T10:39:18;29.17;;;21.13;;
67889;SDS011;54685;52.082;5.426;2024-02-28T10:41:46;30.38;;;23.45;;
67889;SDS011;54685;52.082;5.426;2024-02-28T10:44:15;31.90;;;23.55;;
67889;SDS011;54685;52.082;5.426;2024-02-28T10:46:43;36.40;;;24.80;;
67889;SDS011;54685;52.082;5.426;2024-02-28T10:49:14;32.88;;;23.85;;
67889;SDS011;54685;52.082;5.426;2024-02-28T10:51:41;30.38;;;23.63;;
67889;SDS011;54685;52.082;5.426;2024-02-28T10:54:13;31.10;;;22.90;;
67889;SDS011;54685;52.082;5.426;2024-02-28T10:56:41;37.10;;;25.02;;
67889;SDS011;54685;52.082;5.426;2024-02-28T10:59:10;33.92;;;24.75;;
67889;SDS011;54685;52.082;5.426;2024-02-28T11:01:39;34.75;;;24.63;;
67889;SDS011;54685;52.082;5.426;2024-02-28T11:04:09;33.30;;;22.88;;
67889;SDS011;54685;52.082;5.426;2024-02-28T11:06:47;33.25;;;22.50;;
67889;SDS011;54685;52.082;5.426;2024-02-28T11:09:22;30.60;;;21.55;;
67889;SDS011;54685;52.082;5.426;2024-02-28T11:11:52;32.55;;;21.30;;
67889;SDS011;54685;52.082;5.426;2024-02-28T11:14:21;31.40;;;20.50;;
67889;SDS011;54685;52.082;5.426;2024-02-28T11:17:00;30.17;;;20.83;;
67889;SDS011;54685;52.082;5.426;2024-02-28T11:19:29;29.83;;;21.17;;
67889;SDS011;54685;52.082;5.426;2024-02-28T11:21:59;31.05;;;21.67;;
67889;SDS011;54685;52.082;5.426;2024-02-28T11:24:31;28.40;;;20.48;;
67889;SDS011;54685;52.082;5.426;2024-02-28T11:27:00;28.23;;;20.25;;
67889;SDS011;54685;52.082;5.426;2024-02-28T11:29:29;33.58;;;21.02;;
67889;SDS011;54685;52.082;5.426;2024-02-28T11:32:02;30.38;;;21.20;;
67889;SDS011;54685;52.082;5.426;2024-02-28T11:34:30;30.55;;;19.90;;
67889;SDS011;54685;52.082;5.426;2024-02-28T11:36:57;29.73;;;20.52;;
67889;SDS011;54685;52.082;5.426;2024-02-28T11:39:27;29.77;;;20.95;;
67889;SDS011;54685;52.082;5.426;2024-02-28T11:42:02;28.48;;;20.50;;
67889;SDS011;54685;52.082;5.426;2024-02-28T11:44:39;30.42;;;21.17;;
67889;SDS011;54685;52.082;5.426;2024-02-28T11:47:09;34.25;;;21.10;;
67889;SDS011;54685;52.082;5.426;2024-02-28T11:49:37;35.92;;;22.80;;
67889;SDS011;54685;52.082;5.426;2024-02-28T11:52:05;29.38;;;20.48;;
67889;SDS011;54685;52.082;5.426;2024-02-28T11:54:32;33.25;;;21.33;;
67889;SDS011;54685;52.082;5.426;2024-02-28T11:56:59;30.40;;;22.25;;
67889;SDS011;54685;52.082;5.426;2024-02-28T11:59:26;28.35;;;20.77;;
67889;SDS011;54685;52.082;5.426;2024-02-28T12:01:55;32.45;;;21.02;;
67889;SDS011;54685;52.082;5.426;2024-02-28T12:04:25;33.13;;;21.35;;
67889;SDS011;54685;52.082;5.426;2024-02-28T12:06:52;29.77;;;20.90;;
67889;SDS011;54685;52.082;5.426;2024-02-28T12:09:19;29.20;;;20.25;;
67889;SDS011;54685;52.082;5.426;2024-02-28T12:11:59;31.00;;;19.55;;
67889;SDS011;54685;52.082;5.426;2024-02-28T12:14:31;30.65;;;19.27;;
67889;SDS011;54685;52.082;5.426;2024-02-28T12:17:02;29.10;;;19.45;;
67889;SDS011;54685;52.082;5.426;2024-02-28T12:19:29;28.88;;;19.33;;
67889;SDS011;54685;52.082;5.426;2024-02-28T12:22:00;28.58;;;18.85;;
67889;SDS011;54685;52.082;5.426;2024-02-28T12:24:27;29.70;;;19.92;;
67889;SDS011;54685;52.082;5.426;2024-02-28T12:26:57;27.15;;;19.15;;
67889;SDS011;54685;52.082;5.426;2024-02-28T12:29:24;27.63;;;18.92;;
67889;SDS011;54685;52.082;5.426;2024-02-28T12:31:50;30.45;;;20.48;;
67889;SDS011;54685;52.082;5.426;2024-02-28T12:34:17;32.72;;;20.88;;
67889;SDS011;54685;52.082;5.426;2024-02-28T12:36:44;26.73;;;19.17;;
67889;SDS011;54685;52.082;5.426;2024-02-28T12:39:12;27.92;;;19.58;;
67889;SDS011;54685;52.082;5.426;2024-02-28T12:41:39;26.17;;;17.45;;
67889;SDS011;54685;52.082;5.426;2024-02-28T12:44:07;24.95;;;17.50;;
67889;SDS011;54685;52.082;5.426;2024-02-28T12:46:35;26.73;;;18.20;;
67889;SDS011;54685;52.082;5.426;2024-02-28T12:49:02;28.73;;;18.65;;
67889;SDS011;54685;52.082;5.426;2024-02-28T12:51:42;28.80;;;18.10;;
67889;SDS011;54685;52.082;5.426;2024-02-28T12:54:11;29.95;;;18.30;;
67889;SDS011;54685;52.082;5.426;2024-02-28T12:56:40;26.38;;;19.30;;
67889;SDS011;54685;52.082;5.426;2024-02-28T12:59:10;30.50;;;18.63;;
67889;SDS011;54685;52.082;5.426;2024-02-28T13:01:37;29.98;;;18.60;;
67889;SDS011;54685;52.082;5.426;2024-02-28T13:04:05;27.42;;;18.02;;
67889;SDS011;54685;52.082;5.426;2024-02-28T13:06:32;24.98;;;17.77;;
67889;SDS011;54685;52.082;5.426;2024-02-28T13:08:59;24.33;;;18.95;;
67889;SDS011;54685;52.082;5.426;2024-02-28T13:11:27;28.40;;;17.38;;
67889;SDS011;54685;52.082;5.426;2024-02-28T13:13:54;28.85;;;17.63;;
67889;SDS011;54685;52.082;5.426;2024-02-28T13:16:20;25.83;;;17.83;;
67889;SDS011;54685;52.082;5.426;2024-02-28T13:18:50;29.45;;;18.17;;
67889;SDS011;54685;52.082;5.426;2024-02-28T13:21:17;28.30;;;19.23;;
67889;SDS011;54685;52.082;5.426;2024-02-28T13:23:45;29.30;;;18.95;;
67889;SDS011;54685;52.082;5.426;2024-02-28T13:26:12;29.98;;;20.23;;
67889;SDS011;54685;52.082;5.426;2024-02-28T13:28:44;25.00;;;18.45;;
67889;SDS011;54685;52.082;5.426;2024-02-28T13:31:16;28.27;;;18.17;;
67889;SDS011;54685;52.082;5.426;2024-02-28T13:33:43;22.73;;;17.35;;
67889;SDS011;54685;52.082;5.426;2024-02-28T13:36:10;22.70;;;17.42;;
67889;SDS011;54685;52.082;5.426;2024-02-28T13:38:37;27.90;;;18.23;;
67889;SDS011;54685;52.082;5.426;2024-02-28T13:41:03;28.67;;;18.38;;
67889;SDS011;54685;52.082;5.426;2024-02-28T13:43:31;25.83;;;18.50;;
67889;SDS011;54685;52.082;5.426;2024-02-28T13:45:58;22.75;;;17.05;;
67889;SDS011;54685;52.082;5.426;2024-02-28T13:48:26;22.40;;;16.58;;
67889;SDS011;54685;52.082;5.426;2024-02-28T13:50:59;24.23;;;16.97;;
67889;SDS011;54685;52.082;5.426;2024-02-28T13:53:27;25.02;;;16.05;;
67889;SDS011;54685;52.082;5.426;2024-02-28T13:55:54;24.52;;;17.13;;
67889;SDS011;54685;52.082;5.426;2024-02-28T13:58:21;24.45;;;15.95;;
67889;SDS011;54685;52.082;5.426;2024-02-28T14:00:47;26.08;;;17.60;;
67889;SDS011;54685;52.082;5.426;2024-02-28T14:03:15;21.00;;;15.65;;
67889;SDS011;54685;52.082;5.426;2024-02-28T14:05:42;19.92;;;15.85;;
67889;SDS011;54685;52.082;5.426;2024-02-28T14:08:09;22.98;;;16.50;;
67889;SDS011;54685;52.082;5.426;2024-02-28T14:10:43;22.02;;;15.48;;
67889;SDS011;54685;52.082;5.426;2024-02-28T14:13:10;25.42;;;15.90;;
67889;SDS011;54685;52.082;5.426;2024-02-28T14:15:38;24.63;;;15.50;;
67889;SDS011;54685;52.082;5.426;2024-02-28T14:18:05;21.75;;;16.63;;
67889;SDS011;54685;52.082;5.426;2024-02-28T14:20:32;21.67;;;15.73;;
67889;SDS011;54685;52.082;5.426;2024-02-28T14:22:59;26.05;;;16.67;;
67889;SDS011;54685;52.082;5.426;2024-02-28T14:25:26;27.83;;;19.48;;